Marion Junction, Alabama
Current Conditions -  °F | °C
As of 6:35 PM on Monday 24 Nov 2014 (Local Time) from KSEM Reporting Station
Few Clouds Few Clouds  
Wind Chill: 57°   Ceiling: Unl
Heat Index: 57°   Visibility: 10mi
Dew Point: 46°   Wind: 8mph
Humidity: 67%   Direction: 320°NW
Pressure: 29.95"   Gusts: NA
Location:  32.44°N, 87.24°W
Report Text: KSEM 250035Z AUTO 32007KT 10SM FEW016 14/08 A2995 RMK AO2
Loading
Personal Weather Stations






























Interactive Weather Map New forecast layout! Learn more

10-Day Weather Forecast

Advertisements
Track Severe Weather on mobile